Time;durP1;ratioP1;P1;durP2;ratioP2;P2;SDS_P1;SDS_P2;PMS_P1;PMS_P2;Temp;Humidity;BMP_temperature;BMP_pressure;BME280_temperature;BME280_humidity;BME280_pressure;Samples;Min_cycle;Max_cycle;Signal;HPM_P1;HPM_P2
2023/03/06 00:01:53;;;;;;;;;;;;;;;15.80;48.68;100198.16;4999797;28;1009;-49
2023/03/06 00:04:19;;;;;;;;;;;;;;;15.49;49.35;100207.28;4999273;28;1975;-47
2023/03/06 00:06:44;;;;;;;;;;;;;;;15.28;49.90;100205.72;4999477;28;1152;-50
2023/03/06 00:09:10;;;;;;;;;;;;;;;15.64;49.17;100200.94;4999267;28;858;-51
2023/03/06 00:11:35;;;;;;;;;;;;;;;17.17;45.29;100207.53;4986405;28;1065;-46
2023/03/06 00:14:01;;;;;;;;;;;;;;;16.46;46.85;100216.09;4999493;28;1137;-47
2023/03/06 00:16:26;;;;;;;;;;;;;;;15.85;48.14;100211.81;4999000;28;1132;-48
2023/03/06 00:18:52;;;;;;;;;;;;;;;15.52;48.97;100216.88;4998946;28;1064;-45
2023/03/06 00:21:18;;;;;;;;;;;;;;;15.29;49.40;100210.09;4998915;28;1222;-47
2023/03/06 00:23:43;;;;;;;;;;;;;;;16.17;47.72;100214.09;4999341;28;1060;-51
2023/03/06 00:26:09;;;;;;;;;;;;;;;17.40;44.81;100214.94;4998587;28;1906;-49
2023/03/06 00:28:36;;;;;;;;;;;;;;;16.32;47.01;100215.91;4999313;28;1208;-46
2023/03/06 00:31:02;;;;;;;;;;;;;;;15.76;48.54;100213.50;5014426;28;1222;-50
2023/03/06 00:33:27;;;;;;;;;;;;;;;15.49;49.00;100212.78;4998634;28;879;-48
2023/03/06 00:35:53;;;;;;;;;;;;;;;15.31;49.26;100213.41;4998543;28;1120;-48
2023/03/06 00:38:18;;;;;;;;;;;;;;;16.02;48.09;100212.28;4998577;28;1072;-49
2023/03/06 00:40:44;;;;;;;;;;;;;;;17.26;44.89;100211.25;4999012;28;1053;-48
2023/03/06 00:43:10;;;;;;;;;;;;;;;16.16;47.32;100211.63;4998977;28;1049;-50
2023/03/06 00:45:35;;;;;;;;;;;;;;;15.64;48.56;100200.94;4993829;28;1914;-48
2023/03/06 00:48:01;;;;;;;;;;;;;;;15.41;49.16;100207.88;4998407;28;1127;-49
2023/03/06 00:50:26;;;;;;;;;;;;;;;15.89;48.17;100213.72;4999208;28;1211;-46
2023/03/06 00:52:52;;;;;;;;;;;;;;;17.30;44.80;100209.56;4998972;28;1064;-50
2023/03/06 00:55:17;;;;;;;;;;;;;;;16.36;46.92;100206.00;4998730;28;1017;-50
2023/03/06 00:57:43;;;;;;;;;;;;;;;15.80;48.26;100203.63;4998164;28;942;-50
2023/03/06 01:00:09;;;;;;;;;;;;;;;15.54;49.01;100211.94;4998479;28;1061;-51
2023/03/06 01:02:35;;;;;;;;;;;;;;;15.90;48.08;100209.84;5013112;28;1339;-48
2023/03/06 01:05:01;;;;;;;;;;;;;;;17.07;44.97;100206.50;4998288;28;1902;-51
2023/03/06 01:07:27;;;;;;;;;;;;;;;16.05;47.43;100200.72;4998700;28;1208;-51
2023/03/06 01:09:53;;;;;;;;;;;;;;;15.63;48.51;100204.78;4997885;28;1303;-48
2023/03/06 01:12:20;;;;;;;;;;;;;;;15.37;48.99;100204.84;4998565;28;1112;-51
2023/03/06 01:14:46;;;;;;;;;;;;;;;15.22;49.39;100204.91;4998312;28;1139;-47
2023/03/06 01:17:11;;;;;;;;;;;;;;;15.68;48.49;100202.00;5013030;28;1304;-49
2023/03/06 01:19:37;;;;;;;;;;;;;;;17.10;44.82;100197.69;4998408;28;1195;-47
2023/03/06 01:22:02;;;;;;;;;;;;;;;16.48;46.32;100202.06;5013143;28;1107;-48
2023/03/06 01:24:28;;;;;;;;;;;;;;;15.82;47.98;100204.16;4998219;28;1975;-47
2023/03/06 01:26:55;;;;;;;;;;;;;;;15.54;48.76;100195.47;4997798;28;1092;-50
2023/03/06 01:29:20;;;;;;;;;;;;;;;15.42;49.10;100201.28;4997823;28;1140;-51
2023/03/06 01:31:46;;;;;;;;;;;;;;;17.04;45.21;100193.34;4998135;28;1215;-51
2023/03/06 01:34:12;;;;;;;;;;;;;;;16.30;46.52;100196.19;5013120;28;1281;-49
2023/03/06 01:36:37;;;;;;;;;;;;;;;15.78;48.14;100200.31;4998050;28;1044;-44
2023/03/06 01:39:03;;;;;;;;;;;;;;;15.47;48.51;100203.19;4979834;28;1240;-48
2023/03/06 01:41:29;;;;;;;;;;;;;;;15.48;48.69;100215.78;4997917;28;1044;-46
2023/03/06 01:43:54;;;;;;;;;;;;;;;17.06;44.99;100218.59;5012834;28;1915;-48
2023/03/06 01:46:33;;;;;;;;;;;;;;;16.17;46.72;100213.28;5012388;28;1480;-50
2023/03/06 01:49:18;;;;;;;;;;;;;;;15.60;48.40;100216.31;4985113;28;1124;-45
2023/03/06 01:51:54;;;;;;;;;;;;;;;15.35;48.78;100226.25;4996682;28;990;-49
2023/03/06 01:54:23;;;;;;;;;;;;;;;15.41;48.72;100227.03;4997337;28;1082;-48
2023/03/06 01:56:50;;;;;;;;;;;;;;;17.01;44.90;100232.41;5012478;28;1127;-47
2023/03/06 01:59:16;;;;;;;;;;;;;;;16.51;45.95;100239.91;4996112;28;1326;-50
2023/03/06 02:01:41;;;;;;;;;;;;;;;15.85;47.68;100244.72;5012489;28;1326;-48
2023/03/06 02:04:07;;;;;;;;;;;;;;;15.52;48.39;100253.31;5012773;28;1902;-49
2023/03/06 02:06:36;;;;;;;;;;;;;;;15.28;48.88;100257.75;4997374;28;1179;-48
2023/03/06 02:09:02;;;;;;;;;;;;;;;16.14;47.18;100257.72;4995300;28;1174;-48
2023/03/06 02:11:27;;;;;;;;;;;;;;;17.31;43.97;100257.91;5012404;28;1156;-46
2023/03/06 02:13:53;;;;;;;;;;;;;;;16.15;46.67;100251.97;5012553;28;1099;-47
2023/03/06 02:16:25;;;;;;;;;;;;;;;15.68;47.92;100264.22;4996120;28;1126;-50
2023/03/06 02:18:51;;;;;;;;;;;;;;;15.43;48.61;100262.38;5012295;28;1115;-52
2023/03/06 02:21:37;;;;;;;;;;;;;;;15.30;48.88;100261.84;4996728;28;1021;-46
2023/03/06 02:24:05;;;;;;;;;;;;;;;17.06;44.86;100256.25;4996716;28;1910;-51
2023/03/06 02:26:31;;;;;;;;;;;;;;;16.79;45.26;100268.53;4997596;28;1025;-48
2023/03/06 02:28:58;;;;;;;;;;;;;;;15.89;47.37;100267.72;5012135;28;1326;-48
2023/03/06 02:31:25;;;;;;;;;;;;;;;15.59;48.06;100269.47;5011628;28;1175;-50
2023/03/06 02:34:00;;;;;;;;;;;;;;;15.34;48.56;100276.66;5011890;28;1272;-52
2023/03/06 02:36:27;;;;;;;;;;;;;;;15.18;49.05;100275.03;4979598;28;1110;-48
2023/03/06 02:38:53;;;;;;;;;;;;;;;16.73;45.42;100267.75;4996607;28;1072;-48
2023/03/06 02:41:19;;;;;;;;;;;;;;;16.76;45.33;100277.34;4996475;28;1489;-48
2023/03/06 02:43:46;;;;;;;;;;;;;;;15.87;47.43;100273.50;5011940;28;1332;-48
2023/03/06 02:46:12;;;;;;;;;;;;;;;15.52;48.18;100269.75;5011345;28;1976;-48
2023/03/06 02:48:38;;;;;;;;;;;;;;;15.32;48.92;100272.53;4996881;28;1168;-49
2023/03/06 02:51:03;;;;;;;;;;;;;;;16.82;45.27;100276.19;5011783;28;1032;-48
2023/03/06 02:53:31;;;;;;;;;;;;;;;16.25;46.44;100273.03;5011523;28;1142;-49
2023/03/06 02:55:58;;;;;;;;;;;;;;;15.64;47.97;100280.41;4997145;28;1017;-45
2023/03/06 02:58:23;;;;;;;;;;;;;;;16.06;47.11;100281.06;5011632;28;1326;-51
2023/03/06 03:00:49;;;;;;;;;;;;;;;17.30;44.28;100275.50;5011434;28;1599;-50
2023/03/06 03:03:15;;;;;;;;;;;;;;;16.22;46.52;100287.31;5015790;28;1167;-50
2023/03/06 03:05:41;;;;;;;;;;;;;;;15.73;47.62;100283.41;5000430;28;1966;-49
2023/03/06 03:08:13;;;;;;;;;;;;;;;15.51;48.30;100281.81;5015574;28;1115;-49
2023/03/06 03:10:38;;;;;;;;;;;;;;;15.28;48.88;100283.25;5015017;28;2083;-49
2023/03/06 03:13:05;;;;;;;;;;;;;;;15.89;47.48;100285.00;5015705;28;1148;-49
2023/03/06 03:15:32;;;;;;;;;;;;;;;17.20;44.45;100278.38;5015395;28;1185;-49
2023/03/06 03:17:57;;;;;;;;;;;;;;;16.18;46.80;100286.25;5001007;28;1081;-48
2023/03/06 03:20:23;;;;;;;;;;;;;;;15.64;47.96;100283.16;5000353;28;1083;-49
2023/03/06 03:22:50;;;;;;;;;;;;;;;15.35;48.74;100280.22;5014406;28;1242;-50
2023/03/06 03:25:15;;;;;;;;;;;;;;;16.12;46.97;100288.19;5015710;28;1898;-48
2023/03/06 03:27:41;;;;;;;;;;;;;;;17.30;44.05;100277.44;5015420;28;1151;-51
2023/03/06 03:30:08;;;;;;;;;;;;;;;16.12;46.63;100279.97;5015263;28;1154;-49
2023/03/06 03:32:34;;;;;;;;;;;;;;;15.71;47.83;100291.06;4982744;28;1289;-50
2023/03/06 03:35:00;;;;;;;;;;;;;;;15.44;48.67;100285.94;5015206;28;1445;-47
2023/03/06 03:37:27;;;;;;;;;;;;;;;16.12;47.02;100290.09;5020380;28;1222;-47
2023/03/06 03:39:53;;;;;;;;;;;;;;;17.41;43.87;100285.28;4999963;28;1056;-48
2023/03/06 03:42:19;;;;;;;;;;;;;;;16.46;45.89;100292.13;4999667;28;1203;-46
2023/03/06 03:44:44;;;;;;;;;;;;;;;15.84;47.75;100284.22;4999744;28;1952;-46
2023/03/06 03:47:10;;;;;;;;;;;;;;;15.58;48.10;100287.00;5014728;28;1315;-48
2023/03/06 03:49:36;;;;;;;;;;;;;;;15.30;48.70;100288.44;4999826;28;1151;-48
2023/03/06 03:52:02;;;;;;;;;;;;;;;16.13;46.94;100294.47;5014772;28;1240;-45
2023/03/06 03:54:31;;;;;;;;;;;;;;;17.14;44.45;100296.00;5014906;28;1464;-49
2023/03/06 03:56:57;;;;;;;;;;;;;;;16.06;47.10;100290.13;5014972;28;1240;-52
2023/03/06 03:59:27;;;;;;;;;;;;;;;15.63;47.85;100295.22;5014591;28;1103;-49
2023/03/06 04:02:20;;;;;;;;;;;;;;;15.33;48.59;100298.84;5014814;28;1180;-47
2023/03/06 04:05:03;;;;;;;;;;;;;;;16.00;47.28;100302.22;5014379;28;1978;-47
2023/03/06 04:07:30;;;;;;;;;;;;;;;17.26;43.98;100310.16;5014224;28;1325;-49
2023/03/06 04:09:56;;;;;;;;;;;;;;;16.18;46.66;100309.00;5014779;28;1036;-48
2023/03/06 04:12:22;;;;;;;;;;;;;;;15.64;47.88;100312.47;4982180;28;1205;-49
2023/03/06 04:14:48;;;;;;;;;;;;;;;15.43;48.29;100308.97;5013410;28;1211;-50
2023/03/06 04:17:14;;;;;;;;;;;;;;;15.58;48.07;100317.16;5014285;28;1114;-47
2023/03/06 04:19:39;;;;;;;;;;;;;;;17.15;44.39;100314.13;5014374;28;1120;-49
2023/03/06 04:22:05;;;;;;;;;;;;;;;16.45;45.85;100313.22;4999133;28;1033;-50
2023/03/06 04:24:33;;;;;;;;;;;;;;;15.79;47.41;100317.94;4999111;28;1906;-49
2023/03/06 04:27:00;;;;;;;;;;;;;;;15.51;48.05;100322.91;5003522;28;1184;-47
2023/03/06 04:29:25;;;;;;;;;;;;;;;15.32;48.58;100316.38;4999120;28;1089;-44
2023/03/06 04:31:51;;;;;;;;;;;;;;;15.53;48.46;100325.41;4999173;28;1145;-45
2023/03/06 04:34:17;;;;;;;;;;;;;;;17.06;44.71;100317.47;5014248;28;1124;-49
2023/03/06 04:36:45;;;;;;;;;;;;;;;16.41;45.97;100326.72;4999058;28;1060;-52
2023/03/06 04:39:14;;;;;;;;;;;;;;;15.73;47.53;100321.78;5014350;28;1064;-48
2023/03/06 04:41:39;;;;;;;;;;;;;;;15.45;48.31;100318.53;4999278;28;1123;-51
2023/03/06 04:44:05;;;;;;;;;;;;;;;15.60;48.13;100333.31;4999055;28;1975;-50
2023/03/06 04:46:31;;;;;;;;;;;;;;;17.18;44.39;100335.50;4999169;28;1148;-49
2023/03/06 04:48:57;;;;;;;;;;;;;;;16.43;45.71;100323.69;4999094;28;1036;-50
2023/03/06 04:51:22;;;;;;;;;;;;;;;15.83;47.49;100340.94;4998061;28;1072;-47
2023/03/06 04:53:48;;;;;;;;;;;;;;;15.50;48.13;100329.50;4998980;28;1171;-50
2023/03/06 04:56:14;;;;;;;;;;;;;;;15.31;48.62;100339.41;4998699;28;1079;-53
2023/03/06 04:58:39;;;;;;;;;;;;;;;15.25;48.86;100344.06;4998933;28;1044;-55
2023/03/06 05:01:05;;;;;;;;;;;;;;;16.86;45.14;100345.09;4998599;28;1033;-52
2023/03/06 05:03:30;;;;;;;;;;;;;;;16.53;45.82;100347.50;4998702;28;1108;-50
2023/03/06 05:05:56;;;;;;;;;;;;;;;15.81;47.54;100347.81;4997591;28;1902;-53
2023/03/06 05:08:22;;;;;;;;;;;;;;;15.50;48.15;100354.16;4999070;28;1088;-49
2023/03/06 05:10:52;;;;;;;;;;;;;;;15.29;48.77;100355.28;4998087;28;997;-50
2023/03/06 05:13:17;;;;;;;;;;;;;;;16.22;46.62;100359.44;4985693;28;1120;-51
2023/03/06 05:15:43;;;;;;;;;;;;;;;17.10;44.40;100367.19;4998113;28;1184;-52
2023/03/06 05:18:09;;;;;;;;;;;;;;;16.02;46.65;100357.63;4998133;28;1123;-53
2023/03/06 05:20:34;;;;;;;;;;;;;;;15.62;47.96;100353.84;4998375;28;1064;-53
2023/03/06 05:23:00;;;;;;;;;;;;;;;15.37;48.29;100366.50;4998090;28;869;-53
2023/03/06 05:25:25;;;;;;;;;;;;;;;15.49;48.46;100368.16;4997606;28;1910;-53
2023/03/06 05:27:51;;;;;;;;;;;;;;;17.04;44.68;100355.44;4998251;28;1060;-50
2023/03/06 05:30:17;;;;;;;;;;;;;;;16.41;45.92;100356.06;4997685;28;1005;-50
2023/03/06 05:32:43;;;;;;;;;;;;;;;15.80;47.28;100362.63;4997832;28;1115;-54
2023/03/06 05:35:10;;;;;;;;;;;;;;;15.47;48.37;100362.09;4997754;28;1209;-52
2023/03/06 05:37:35;;;;;;;;;;;;;;;15.42;48.24;100367.59;5013210;28;1215;-49
2023/03/06 05:40:02;;;;;;;;;;;;;;;17.03;44.45;100367.50;4997930;28;1127;-52
2023/03/06 05:42:29;;;;;;;;;;;;;;;16.65;45.12;100364.44;4997941;28;1131;-53
2023/03/06 05:44:55;;;;;;;;;;;;;;;15.93;46.87;100375.75;4997709;28;1970;-53
2023/03/06 05:47:20;;;;;;;;;;;;;;;15.57;47.85;100375.78;4997443;28;905;-51
2023/03/06 05:49:46;;;;;;;;;;;;;;;15.37;48.31;100377.44;4997791;28;1140;-52
2023/03/06 05:52:11;;;;;;;;;;;;;;;16.81;45.16;100387.13;4997792;28;1143;-48
2023/03/06 05:54:37;;;;;;;;;;;;;;;16.96;44.58;100380.75;5012489;28;1075;-52
2023/03/06 05:57:03;;;;;;;;;;;;;;;16.09;46.53;100384.75;4997452;28;1064;-54
2023/03/06 05:59:31;;;;;;;;;;;;;;;15.74;47.32;100381.81;4996915;28;1044;-52
2023/03/06 06:01:57;;;;;;;;;;;;;;;15.52;48.19;100389.50;4997350;28;1210;-51
2023/03/06 06:04:23;;;;;;;;;;;;;;;15.37;48.45;100388.41;4997276;28;1898;-51
2023/03/06 06:06:55;;;;;;;;;;;;;;;16.48;45.78;100395.03;4997260;28;1215;-53
2023/03/06 06:09:21;;;;;;;;;;;;;;;17.23;43.63;100385.75;4997141;28;1302;-55
2023/03/06 06:11:49;;;;;;;;;;;;;;;16.21;46.49;100389.91;4997578;28;880;-50
2023/03/06 06:14:15;;;;;;;;;;;;;;;16.95;45.10;100403.81;4997447;28;1215;-51
2023/03/06 06:16:41;;;;;;;;;;;;;;;16.06;46.61;100399.84;4996966;28;1112;-49
2023/03/06 06:19:06;;;;;;;;;;;;;;;15.54;47.68;100407.34;4996971;28;1140;-53
2023/03/06 06:21:32;;;;;;;;;;;;;;;15.28;47.83;100406.50;4997338;28;1033;-51
2023/03/06 06:23:57;;;;;;;;;;;;;;;16.42;46.40;100401.63;4996869;28;1104;-50
2023/03/06 06:26:23;;;;;;;;;;;;;;;15.49;47.67;100409.25;4997523;28;1977;-51
2023/03/06 06:28:48;;;;;;;;;;;;;;;17.17;44.65;100411.63;4997128;28;1084;-50
2023/03/06 06:31:14;;;;;;;;;;;;;;;16.96;45.09;100421.94;4997030;28;1113;-51
2023/03/06 06:33:40;;;;;;;;;;;;;;;15.86;47.32;100410.88;4997454;28;1143;-49
2023/03/06 06:36:13;;;;;;;;;;;;;;;16.57;46.31;100414.44;4996319;28;888;-56
2023/03/06 06:38:38;;;;;;;;;;;;;;;16.17;46.98;100419.00;5011969;28;1099;-53
2023/03/06 06:41:04;;;;;;;;;;;;;;;15.78;46.87;100414.13;4996869;28;1080;-54
2023/03/06 06:43:30;;;;;;;;;;;;;;;16.74;45.67;100423.13;4996484;28;1091;-54
2023/03/06 06:45:57;;;;;;;;;;;;;;;15.87;46.99;100418.00;4996793;28;1890;-50
2023/03/06 06:48:22;;;;;;;;;;;;;;;17.32;44.75;100431.84;4996050;28;1131;-52
2023/03/06 06:50:53;;;;;;;;;;;;;;;16.58;45.98;100433.38;4996438;28;1180;-53
2023/03/06 06:53:19;;;;;;;;;;;;;;;15.94;46.97;100420.47;4996996;28;1192;-54
2023/03/06 06:55:45;;;;;;;;;;;;;;;15.77;46.41;100418.81;4996535;28;1195;-52
2023/03/06 06:58:10;;;;;;;;;;;;;;;17.04;45.33;100424.09;4996751;28;1156;-52
2023/03/06 07:00:36;;;;;;;;;;;;;;;16.05;46.84;100431.09;4996600;28;950;-52
2023/03/06 07:03:01;;;;;;;;;;;;;;;16.46;46.67;100441.13;4996703;28;1139;-50
2023/03/06 07:05:27;;;;;;;;;;;;;;;16.45;46.37;100433.16;4996850;28;1890;-53
2023/03/06 07:07:52;;;;;;;;;;;;;;;15.86;46.93;100430.88;4996723;28;1235;-50
2023/03/06 07:10:18;;;;;;;;;;;;;;;15.91;47.54;100425.38;4996451;28;1087;-53
2023/03/06 07:12:43;;;;;;;;;;;;;;;16.36;46.53;100435.69;4996095;28;959;-51
2023/03/06 07:15:11;;;;;;;;;;;;;;;17.09;45.44;100432.28;4996605;28;1116;-55
2023/03/06 07:17:36;;;;;;;;;;;;;;;18.37;42.46;100429.47;4996631;28;1192;-54
2023/03/06 07:20:03;;;;;;;;;;;;;;;16.67;46.18;100430.06;4996781;28;1239;-54
2023/03/06 07:22:28;;;;;;;;;;;;;;;16.10;46.93;100430.25;4996146;28;1159;-56
2023/03/06 07:24:54;;;;;;;;;;;;;;;17.00;45.51;100427.69;4996404;28;1903;-53
2023/03/06 07:27:21;;;;;;;;;;;;;;;16.12;46.73;100432.72;4996324;28;1133;-55
2023/03/06 07:29:47;;;;;;;;;;;;;;;16.46;46.48;100443.06;4996068;28;1114;-55
2023/03/06 07:32:12;;;;;;;;;;;;;;;16.38;46.75;100439.78;4996318;28;1056;-52
2023/03/06 07:34:38;;;;;;;;;;;;;;;16.01;46.59;100441.00;4996211;28;1044;-56
2023/03/06 07:37:04;;;;;;;;;;;;;;;17.70;43.99;100452.16;4996085;28;935;-54
2023/03/06 07:39:29;;;;;;;;;;;;;;;16.45;46.38;100438.66;4996280;28;1152;-53
2023/03/06 07:41:55;;;;;;;;;;;;;;;15.98;46.73;100447.03;4996504;28;1095;-55
2023/03/06 07:44:21;;;;;;;;;;;;;;;16.81;45.80;100442.03;4996288;28;1906;-55
2023/03/06 07:46:47;;;;;;;;;;;;;;;16.40;46.39;100451.28;4996482;28;1220;-51
2023/03/06 07:49:12;;;;;;;;;;;;;;;16.02;46.43;100434.41;4999282;28;931;-57
2023/03/06 07:51:38;;;;;;;;;;;;;;;16.80;45.74;100442.34;4999352;28;1064;-51
2023/03/06 07:54:03;;;;;;;;;;;;;;;16.40;46.39;100445.00;4999908;28;1037;-56
2023/03/06 07:56:29;;;;;;;;;;;;;;;16.13;46.78;100437.13;4999813;28;1120;-58
2023/03/06 07:58:54;;;;;;;;;;;;;;;17.53;44.10;100443.50;4999828;28;1009;-56
2023/03/06 08:01:22;;;;;;;;;;;;;;;16.30;46.53;100434.03;4999459;28;875;-57
2023/03/06 08:03:48;;;;;;;;;;;;;;;15.95;46.58;100425.66;4999200;28;1159;-53
2023/03/06 08:06:15;;;;;;;;;;;;;;;16.82;45.85;100429.97;4999632;28;1910;-53
2023/03/06 08:08:41;;;;;;;;;;;;;;;16.07;46.60;100428.09;4999771;28;1076;-57
2023/03/06 08:11:07;;;;;;;;;;;;;;;15.78;46.50;100425.09;4999724;28;1167;-53
2023/03/06 08:13:32;;;;;;;;;;;;;;;15.69;46.12;100431.13;4999016;28;854;-52
2023/03/06 08:15:59;;;;;;;;;;;;;;;16.99;45.04;100432.38;4999339;28;1135;-55
2023/03/06 08:18:25;;;;;;;;;;;;;;;15.97;46.81;100434.41;4999802;28;1032;-55
2023/03/06 08:20:59;;;;;;;;;;;;;;;15.88;47.22;100439.66;4999095;28;1084;-58
2023/03/06 08:23:24;;;;;;;;;;;;;;;16.30;46.15;100431.28;4999382;28;1132;-57
2023/03/06 08:25:54;;;;;;;;;;;;;;;15.80;46.63;100437.47;4998964;28;1905;-51
2023/03/06 08:28:20;;;;;;;;;;;;;;;17.37;44.33;100432.63;4999108;28;1192;-55
2023/03/06 08:30:45;;;;;;;;;;;;;;;16.28;46.35;100433.50;4999262;28;1186;-53
2023/03/06 08:33:11;;;;;;;;;;;;;;;15.95;46.90;100441.28;4999436;28;1179;-55
2023/03/06 08:35:36;;;;;;;;;;;;;;;16.54;45.91;100434.25;4998905;28;1226;-55
2023/03/06 08:38:02;;;;;;;;;;;;;;;15.99;46.45;100443.19;4999145;28;1195;-55
2023/03/06 08:40:29;;;;;;;;;;;;;;;17.89;43.05;100441.25;4998816;28;1037;-56
2023/03/06 08:42:54;;;;;;;;;;;;;;;16.60;45.77;100441.34;4998940;28;1141;-54
2023/03/06 08:45:20;;;;;;;;;;;;;;;16.12;46.23;100438.22;4998620;28;1922;-55
2023/03/06 08:47:45;;;;;;;;;;;;;;;15.95;46.23;100446.75;4998891;28;1151;-57
2023/03/06 08:50:11;;;;;;;;;;;;;;;16.99;45.21;100448.03;4998923;28;1092;-49
2023/03/06 08:52:37;;;;;;;;;;;;;;;16.42;45.84;100443.63;4998540;28;1192;-47
2023/03/06 08:55:02;;;;;;;;;;;;;;;17.66;43.72;100453.84;4998772;28;1013;-53
2023/03/06 08:57:28;;;;;;;;;;;;;;;18.02;42.37;100448.03;4998532;28;1131;-53
2023/03/06 08:59:54;;;;;;;;;;;;;;;16.71;45.41;100447.59;4998136;28;1068;-54
2023/03/06 09:02:19;;;;;;;;;;;;;;;16.48;45.56;100449.06;4998747;28;1119;-56
2023/03/06 09:04:45;;;;;;;;;;;;;;;17.77;43.08;100447.13;4998596;28;1906;-54
2023/03/06 09:07:11;;;;;;;;;;;;;;;16.59;45.39;100445.19;4998744;28;1128;-52
2023/03/06 09:09:36;;;;;;;;;;;;;;;18.06;42.77;100449.09;4998453;28;1153;-48
2023/03/06 09:12:02;;;;;;;;;;;;;;;17.35;43.92;100445.00;4997592;28;1060;-54
2023/03/06 09:14:28;;;;;;;;;;;;;;;16.83;45.29;100434.38;4998224;28;1083;-53
2023/03/06 09:16:53;;;;;;;;;;;;;;;18.40;41.83;100439.88;4998252;28;1044;-51
2023/03/06 09:19:19;;;;;;;;;;;;;;;17.01;44.88;100426.59;4998064;28;1009;-49
2023/03/06 09:21:44;;;;;;;;;;;;;;;17.36;44.13;100441.16;4998266;28;1152;-50
2023/03/06 09:24:10;;;;;;;;;;;;;;;17.49;43.72;100428.69;4997628;28;1914;-49
2023/03/06 09:26:36;;;;;;;;;;;;;;;16.80;45.09;100437.66;4998094;28;1052;-54
2023/03/06 09:29:01;;;;;;;;;;;;;;;18.74;41.13;100436.13;4997830;28;1175;-54
2023/03/06 09:31:27;;;;;;;;;;;;;;;17.17;44.15;100433.63;4998036;28;1144;-51
2023/03/06 09:33:53;;;;;;;;;;;;;;;16.81;45.03;100427.50;4998056;28;1168;-52
2023/03/06 09:36:19;;;;;;;;;;;;;;;17.54;43.43;100423.97;4998027;28;1129;-51
2023/03/06 09:38:47;;;;;;;;;;;;;;;17.45;44.14;100433.97;4997668;28;1115;-50
2023/03/06 09:41:25;;;;;;;;;;;;;;;19.13;40.17;100426.78;4997987;28;1048;-47
2023/03/06 09:43:51;;;;;;;;;;;;;;;17.64;43.03;100427.72;4997692;28;1072;-45
2023/03/06 09:46:17;;;;;;;;;;;;;;;17.05;44.09;100430.41;5013037;28;1990;-46
2023/03/06 09:48:53;;;;;;;;;;;;;;;18.23;42.04;100428.50;4997484;28;1063;-51
2023/03/06 09:51:19;;;;;;;;;;;;;;;17.05;44.20;100422.97;5012887;28;1056;-53
2023/03/06 09:53:44;;;;;;;;;;;;;;;17.49;43.64;100421.28;4997761;28;1049;-53
2023/03/06 09:56:13;;;;;;;;;;;;;;;17.41;43.55;100428.19;4997567;28;1115;-53
2023/03/06 09:58:40;;;;;;;;;;;;;;;16.72;44.53;100425.34;5012566;28;1195;-50
2023/03/06 10:01:35;;;;;;;;;;;;;;;18.09;42.11;100415.47;4997242;28;1025;-51
2023/03/06 10:04:04;;;;;;;;;;;;;;;16.88;44.33;100426.09;4992898;28;1167;-53
2023/03/06 10:06:30;;;;;;;;;;;;;;;18.66;41.03;100425.78;4997203;28;1981;-50
2023/03/06 10:09:02;;;;;;;;;;;;;;;17.65;43.05;100416.44;4997510;28;1120;-53
2023/03/06 10:11:32;;;;;;;;;;;;;;;16.96;44.00;100421.94;4996613;28;1063;-51
2023/03/06 10:14:09;;;;;;;;;;;;;;;17.91;42.58;100413.50;5012313;28;875;-54
2023/03/06 10:16:35;;;;;;;;;;;;;;;16.90;44.11;100417.56;4997541;28;1056;-54
2023/03/06 10:19:02;;;;;;;;;;;;;;;17.81;42.75;100413.53;4997323;28;1143;-53
2023/03/06 10:21:32;;;;;;;;;;;;;;;17.69;42.84;100406.50;4997376;28;1056;-54
2023/03/06 10:24:09;;;;;;;;;;;;;;;16.91;44.05;100406.34;5012053;28;1158;-50
2023/03/06 10:26:36;;;;;;;;;;;;;;;18.44;41.28;100405.16;5011965;28;1981;-46
2023/03/06 10:29:07;;;;;;;;;;;;;;;17.15;43.63;100389.09;5012261;28;1138;-51
2023/03/06 10:31:33;;;;;;;;;;;;;;;18.59;41.03;100400.53;5012385;28;1207;-48
2023/03/06 10:34:11;;;;;;;;;;;;;;;17.93;42.17;100398.31;5011837;28;1096;-55
2023/03/06 10:36:36;;;;;;;;;;;;;;;17.12;43.60;100386.94;4996783;28;1160;-55
2023/03/06 10:39:03;;;;;;;;;;;;;;;17.88;42.32;100408.50;4996772;28;1092;-50
2023/03/06 10:41:30;;;;;;;;;;;;;;;17.27;43.40;100394.25;4996712;28;1072;-50
2023/03/06 10:43:58;;;;;;;;;;;;;;;18.35;41.34;100403.34;4996795;28;1295;-53
2023/03/06 10:46:30;;;;;;;;;;;;;;;18.54;40.71;100393.19;4996828;28;1985;-52
2023/03/06 10:48:57;;;;;;;;;;;;;;;17.35;43.15;100390.88;4996246;28;1010;-51
2023/03/06 10:51:23;;;;;;;;;;;;;;;17.00;43.57;100401.06;4996578;28;1093;-51
2023/03/06 10:53:49;;;;;;;;;;;;;;;18.11;41.59;100393.97;4996380;28;1040;-51
2023/03/06 10:56:24;;;;;;;;;;;;;;;17.06;43.75;100397.16;4996845;28;1036;-53
2023/03/06 10:58:56;;;;;;;;;;;;;;;18.43;41.06;100394.44;4996545;28;1061;-54
2023/03/06 11:01:21;;;;;;;;;;;;;;;18.04;41.84;100382.50;5011357;28;1052;-54
2023/03/06 11:03:47;;;;;;;;;;;;;;;17.27;43.06;100391.50;4996550;28;1068;-49
2023/03/06 11:06:12;;;;;;;;;;;;;;;18.19;41.74;100383.44;4996377;28;1910;-50
2023/03/06 11:08:38;;;;;;;;;;;;;;;17.21;43.27;100379.72;4996607;28;1064;-47
2023/03/06 11:11:05;;;;;;;;;;;;;;;17.35;43.53;100373.56;4996371;28;1115;-54
2023/03/06 11:13:32;;;;;;;;;;;;;;;18.11;41.56;100380.22;4996530;28;1068;-49
2023/03/06 11:16:01;;;;;;;;;;;;;;;17.08;43.77;100367.47;4996753;28;1228;-48
2023/03/06 11:18:27;;;;;;;;;;;;;;;16.82;44.02;100366.81;4996568;28;1152;-47
2023/03/06 11:20:53;;;;;;;;;;;;;;;16.68;43.96;100374.84;4996149;28;1052;-52
2023/03/06 11:23:34;;;;;;;;;;;;;;;16.80;44.09;100363.50;4998744;28;1176;-52
2023/03/06 11:26:02;;;;;;;;;;;;;;;16.98;43.68;100373.03;5015289;28;1981;-54
2023/03/06 11:28:28;;;;;;;;;;;;;;;16.68;44.29;100371.31;5015446;28;1143;-55
2023/03/06 11:30:55;;;;;;;;;;;;;;;16.32;44.34;100353.09;5000342;28;1084;-50
2023/03/06 11:33:50;;;;;;;;;;;;;;;16.29;43.96;100359.16;5000317;28;1172;-55
2023/03/06 11:36:34;;;;;;;;;;;;;;;16.79;43.94;100355.56;4981383;28;1279;-51
2023/03/06 11:38:59;;;;;;;;;;;;;;;16.88;44.13;100349.22;4999364;28;1045;-49
2023/03/06 11:41:47;;;;;;;;;;;;;;;16.76;44.21;100355.03;5015851;28;1231;-55
2023/03/06 11:44:16;;;;;;;;;;;;;;;17.78;42.40;100338.78;5014863;28;1255;-53
2023/03/06 11:46:47;;;;;;;;;;;;;;;16.79;44.35;100339.94;5000051;28;1108;-52
2023/03/06 11:49:12;;;;;;;;;;;;;;;16.43;44.67;100340.16;5015098;28;1250;-53
2023/03/06 11:51:47;;;;;;;;;;;;;;;17.37;43.16;100338.38;4999754;28;1048;-51
2023/03/06 11:54:13;;;;;;;;;;;;;;;16.56;44.58;100338.69;5015341;28;1206;-52
2023/03/06 11:56:50;;;;;;;;;;;;;;;16.31;44.83;100340.47;4999497;28;1112;-46
2023/03/06 11:59:29;;;;;;;;;;;;;;;16.11;44.73;100338.66;4999869;28;1111;-49
2023/03/06 12:02:00;;;;;;;;;;;;;;;17.26;43.29;100332.16;5014447;28;1083;-53
2023/03/06 12:04:41;;;;;;;;;;;;;;;16.40;45.04;100343.47;4999948;28;1963;-52
2023/03/06 12:07:07;;;;;;;;;;;;;;;16.50;45.09;100337.91;4999710;28;1068;-52
2023/03/06 12:09:32;;;;;;;;;;;;;;;17.12;43.51;100339.44;4999628;28;1072;-49
2023/03/06 12:12:16;;;;;;;;;;;;;;;16.29;45.22;100342.69;4999935;28;1157;-55
2023/03/06 12:14:51;;;;;;;;;;;;;;;16.12;45.16;100333.97;4999184;28;1079;-54
2023/03/06 12:17:22;;;;;;;;;;;;;;;17.17;43.47;100337.44;4999418;28;1040;-49
2023/03/06 12:19:51;;;;;;;;;;;;;;;16.32;45.19;100336.63;4987061;28;1073;-49
2023/03/06 12:22:31;;;;;;;;;;;;;;;17.81;42.24;100342.03;4999396;28;1069;-51
2023/03/06 12:25:16;;;;;;;;;;;;;;;17.34;43.15;100344.47;5014663;28;1967;-53
2023/03/06 12:27:44;;;;;;;;;;;;;;;16.62;44.64;100339.47;4997771;28;1107;-53
2023/03/06 12:30:19;;;;;;;;;;;;;;;16.37;44.81;100344.03;5014025;28;1063;-51
2023/03/06 12:32:48;;;;;;;;;;;;;;;16.95;44.15;100339.84;4999132;28;1154;-51
2023/03/06 12:35:17;;;;;;;;;;;;;;;16.53;45.11;100326.34;5013385;28;1094;-52
2023/03/06 12:37:43;;;;;;;;;;;;;;;16.25;45.12;100319.66;5013600;28;1418;-50
2023/03/06 12:40:22;;;;;;;;;;;;;;;16.06;45.11;100316.72;4998956;28;1041;-48
2023/03/06 12:42:55;;;;;;;;;;;;;;;17.49;42.97;100307.72;5013938;28;1119;-51
2023/03/06 12:45:25;;;;;;;;;;;;;;;16.37;45.03;100311.91;5013440;28;1902;-50
2023/03/06 12:47:51;;;;;;;;;;;;;;;16.17;45.27;100306.53;5001531;28;940;-49
2023/03/06 12:50:17;;;;;;;;;;;;;;;16.77;44.56;100315.50;4998203;28;1079;-47